< < Back
Terminal Aerodrome Forecast


Current Version              Previous Versions:   1  2  3  4  5  6  7  8  9  

Terminal Aerodrome Forecast

458
FTUS42 KJAX 211400 AAB
TAFGNV
TAF AMD
KGNV 211400Z 2114/2212 05006KT 2SM BR VCSH OVC002
     FM211700 10004KT 4SM BR VCSH SCT004 OVC007
     FM212000 08004KT 4SM -RA BR OVC006=



Latest METAR

734
SAUS70 KWBC 212000 RRB
MTRGNV
METAR KGNV 211953Z 08004KT 4SM BR OVC005 17/16 A3004 RMK AO2 SLP170
T01720161


USA.gov is the U.S. government's official web portal to all federal, state and local government web resources and services.